Rechercher aéroport 
image banner adimage banner adimage banner ad
image banner ad

4CA3 - Camp Parks

Situé à Pleasanton, United States

ICAO - 4CA3, IATA -

Données fournies par Airmate  

Information générale

Coordonnées: N37°42'30" W121°53'34"
Élévation : 361 feet MSL.
Variation magnétique : 16° East
Voir autres Aéroports à California

Données opérationnelles

Special qualification required
Heure actuelle UTC:
Heure actuelle locale:
Météo à : KLVK - Livermore Muni ( 7 km )
METAR: KLVK 212253Z 08007KT 10SM CLR 35/07 A3002 RMK AO2 SLP159 T03500072
TAF: KLVK 211736Z 2118/2218 VRB05KT P6SM SKC FM212100 29009KT 6SM HZ FEW200 FM220600 VRB05KT P6SM FEW200
Voir NOTAMs / SUP AIP / TFR affectant cet aéroport [VIEW]
Fréquences de communication: [VIEW]

Pistes:

Coordonnées de l'aéroport

Adresse: Pleasanton United States

Vue satellite de 4CA3